sensor_id;sensor_type;location;lat;lon;timestamp;pressure;altitude;pressure_sealevel;temperature;humidity
58473;BME280;44775;51.564;5.460;2022-08-23T00:01:56;101137.22;;;17.33;77.82
58473;BME280;44775;51.564;5.460;2022-08-23T00:04:24;101132.00;;;17.25;78.33
58473;BME280;44775;51.564;5.460;2022-08-23T00:06:53;101131.38;;;17.23;78.81
58473;BME280;44775;51.564;5.460;2022-08-23T00:09:20;101139.69;;;17.15;78.89
58473;BME280;44775;51.564;5.460;2022-08-23T00:14:26;101127.16;;;17.00;78.83
58473;BME280;44775;51.564;5.460;2022-08-23T00:16:52;101129.84;;;16.94;80.34
58473;BME280;44775;51.564;5.460;2022-08-23T00:19:19;101128.59;;;16.90;80.66
58473;BME280;44775;51.564;5.460;2022-08-23T00:21:46;101127.13;;;16.81;80.91
58473;BME280;44775;51.564;5.460;2022-08-23T00:24:14;101125.41;;;16.73;81.42
58473;BME280;44775;51.564;5.460;2022-08-23T00:29:38;101124.75;;;16.64;83.38
58473;BME280;44775;51.564;5.460;2022-08-23T00:32:06;101125.78;;;16.63;84.15
58473;BME280;44775;51.564;5.460;2022-08-23T00:34:33;101129.31;;;16.57;83.97
58473;BME280;44775;51.564;5.460;2022-08-23T00:36:59;101128.66;;;16.55;84.51
58473;BME280;44775;51.564;5.460;2022-08-23T00:39:24;101130.53;;;16.55;84.69
58473;BME280;44775;51.564;5.460;2022-08-23T00:41:50;101133.00;;;16.56;86.86
58473;BME280;44775;51.564;5.460;2022-08-23T00:44:29;101131.13;;;16.50;85.41
58473;BME280;44775;51.564;5.460;2022-08-23T00:47:15;101123.03;;;16.50;85.43
58473;BME280;44775;51.564;5.460;2022-08-23T00:53:14;101127.59;;;16.49;84.49
58473;BME280;44775;51.564;5.460;2022-08-23T00:55:44;101135.47;;;16.44;85.45
58473;BME280;44775;51.564;5.460;2022-08-23T00:58:12;101135.44;;;16.38;86.76
58473;BME280;44775;51.564;5.460;2022-08-23T01:00:38;101126.91;;;16.34;86.79
58473;BME280;44775;51.564;5.460;2022-08-23T01:03:06;101134.97;;;16.27;87.16
58473;BME280;44775;51.564;5.460;2022-08-23T01:05:44;101142.41;;;16.25;88.12
58473;BME280;44775;51.564;5.460;2022-08-23T01:08:11;101142.97;;;16.14;88.32
58473;BME280;44775;51.564;5.460;2022-08-23T01:10:41;101137.31;;;16.09;88.48
58473;BME280;44775;51.564;5.460;2022-08-23T01:15:43;101137.72;;;16.06;89.36
58473;BME280;44775;51.564;5.460;2022-08-23T01:18:12;101136.28;;;16.03;90.02
58473;BME280;44775;51.564;5.460;2022-08-23T01:21:22;101135.41;;;16.03;88.71
58473;BME280;44775;51.564;5.460;2022-08-23T01:24:01;101140.78;;;15.96;90.18
58473;BME280;44775;51.564;5.460;2022-08-23T01:26:28;101133.28;;;15.92;91.40
58473;BME280;44775;51.564;5.460;2022-08-23T01:29:00;101138.06;;;15.90;90.82
58473;BME280;44775;51.564;5.460;2022-08-23T01:31:26;101141.13;;;15.87;90.54
58473;BME280;44775;51.564;5.460;2022-08-23T01:33:59;101138.19;;;15.81;90.40
58473;BME280;44775;51.564;5.460;2022-08-23T01:36:25;101131.91;;;15.74;90.67
58473;BME280;44775;51.564;5.460;2022-08-23T01:38:51;101134.59;;;15.74;91.44
58473;BME280;44775;51.564;5.460;2022-08-23T01:41:17;101131.69;;;15.69;91.80
58473;BME280;44775;51.564;5.460;2022-08-23T01:43:43;101137.25;;;15.68;92.69
58473;BME280;44775;51.564;5.460;2022-08-23T01:46:18;101133.44;;;15.62;93.74
58473;BME280;44775;51.564;5.460;2022-08-23T01:48:45;101136.34;;;15.61;94.48
58473;BME280;44775;51.564;5.460;2022-08-23T01:51:12;101137.75;;;15.56;95.33
58473;BME280;44775;51.564;5.460;2022-08-23T01:53:38;101145.78;;;15.50;95.98
58473;BME280;44775;51.564;5.460;2022-08-23T01:56:05;101132.94;;;15.52;96.94
58473;BME280;44775;51.564;5.460;2022-08-23T01:58:31;101135.44;;;15.53;96.87
58473;BME280;44775;51.564;5.460;2022-08-23T02:00:57;101133.72;;;15.46;96.34
58473;BME280;44775;51.564;5.460;2022-08-23T02:03:23;101143.66;;;15.45;97.40
58473;BME280;44775;51.564;5.460;2022-08-23T02:05:48;101140.56;;;15.48;97.78
58473;BME280;44775;51.564;5.460;2022-08-23T02:08:14;101148.19;;;15.45;96.98
58473;BME280;44775;51.564;5.460;2022-08-23T02:10:59;101144.88;;;15.43;97.10
58473;BME280;44775;51.564;5.460;2022-08-23T02:13:24;101141.09;;;15.37;95.98
58473;BME280;44775;51.564;5.460;2022-08-23T02:15:50;101144.16;;;15.34;96.21
58473;BME280;44775;51.564;5.460;2022-08-23T02:18:19;101141.03;;;15.30;96.82
58473;BME280;44775;51.564;5.460;2022-08-23T02:20:46;101138.34;;;15.30;96.62
58473;BME280;44775;51.564;5.460;2022-08-23T02:23:12;101140.81;;;15.32;96.66
58473;BME280;44775;51.564;5.460;2022-08-23T02:25:37;101141.31;;;15.35;96.73
58473;BME280;44775;51.564;5.460;2022-08-23T02:28:04;101133.47;;;15.41;96.46
58473;BME280;44775;51.564;5.460;2022-08-23T02:30:30;101145.34;;;15.46;95.52
58473;BME280;44775;51.564;5.460;2022-08-23T02:32:55;101133.47;;;15.41;95.44
58473;BME280;44775;51.564;5.460;2022-08-23T02:35:21;101142.59;;;15.40;95.23
58473;BME280;44775;51.564;5.460;2022-08-23T02:37:47;101140.13;;;15.45;96.21
58473;BME280;44775;51.564;5.460;2022-08-23T02:40:13;101136.59;;;15.44;95.98
58473;BME280;44775;51.564;5.460;2022-08-23T02:42:38;101144.09;;;15.49;96.37
58473;BME280;44775;51.564;5.460;2022-08-23T02:45:05;101148.03;;;15.46;96.09
58473;BME280;44775;51.564;5.460;2022-08-23T02:47:32;101143.19;;;15.42;95.34
58473;BME280;44775;51.564;5.460;2022-08-23T02:50:05;101141.34;;;15.42;96.23
58473;BME280;44775;51.564;5.460;2022-08-23T02:52:31;101151.72;;;15.45;97.39
58473;BME280;44775;51.564;5.460;2022-08-23T02:54:57;101155.44;;;15.44;98.32
58473;BME280;44775;51.564;5.460;2022-08-23T02:57:22;101153.59;;;15.45;97.74
58473;BME280;44775;51.564;5.460;2022-08-23T02:59:48;101149.69;;;15.47;97.75
58473;BME280;44775;51.564;5.460;2022-08-23T03:02:14;101151.34;;;15.48;96.81
58473;BME280;44775;51.564;5.460;2022-08-23T03:04:40;101156.94;;;15.47;96.89
58473;BME280;44775;51.564;5.460;2022-08-23T03:07:06;101162.31;;;15.47;96.97
58473;BME280;44775;51.564;5.460;2022-08-23T03:09:31;101161.06;;;15.43;97.99
58473;BME280;44775;51.564;5.460;2022-08-23T03:11:57;101159.81;;;15.45;97.41
58473;BME280;44775;51.564;5.460;2022-08-23T03:14:22;101167.13;;;15.51;97.90
58473;BME280;44775;51.564;5.460;2022-08-23T03:16:49;101172.78;;;15.56;97.80
58473;BME280;44775;51.564;5.460;2022-08-23T03:19:15;101167.94;;;15.52;97.72
58473;BME280;44775;51.564;5.460;2022-08-23T03:21:40;101175.03;;;15.53;97.45
58473;BME280;44775;51.564;5.460;2022-08-23T03:24:07;101175.47;;;15.56;97.02
58473;BME280;44775;51.564;5.460;2022-08-23T03:26:33;101178.78;;;15.58;97.40
58473;BME280;44775;51.564;5.460;2022-08-23T03:28:59;101178.69;;;15.67;96.40
58473;BME280;44775;51.564;5.460;2022-08-23T03:31:24;101175.41;;;15.71;96.19
58473;BME280;44775;51.564;5.460;2022-08-23T03:33:50;101177.06;;;15.72;96.51
58473;BME280;44775;51.564;5.460;2022-08-23T03:36:16;101176.28;;;15.78;95.97
58473;BME280;44775;51.564;5.460;2022-08-23T03:38:43;101172.19;;;15.82;95.43
58473;BME280;44775;51.564;5.460;2022-08-23T03:41:09;101177.00;;;15.87;94.92
58473;BME280;44775;51.564;5.460;2022-08-23T03:43:35;101177.44;;;15.91;94.96
58473;BME280;44775;51.564;5.460;2022-08-23T03:46:01;101180.97;;;15.91;94.33
58473;BME280;44775;51.564;5.460;2022-08-23T03:48:27;101176.41;;;15.92;94.16
58473;BME280;44775;51.564;5.460;2022-08-23T03:50:52;101173.56;;;16.00;94.27
58473;BME280;44775;51.564;5.460;2022-08-23T03:53:18;101178.09;;;15.99;94.86
58473;BME280;44775;51.564;5.460;2022-08-23T03:55:44;101170.66;;;16.01;94.33
58473;BME280;44775;51.564;5.460;2022-08-23T03:58:10;101183.31;;;16.01;94.51
58473;BME280;44775;51.564;5.460;2022-08-23T04:00:36;101183.09;;;16.02;93.85
58473;BME280;44775;51.564;5.460;2022-08-23T04:03:01;101179.78;;;16.00;93.83
58473;BME280;44775;51.564;5.460;2022-08-23T04:05:27;101182.72;;;16.05;93.30
58473;BME280;44775;51.564;5.460;2022-08-23T04:07:53;101177.72;;;16.02;93.59
58473;BME280;44775;51.564;5.460;2022-08-23T04:10:19;101178.53;;;16.03;93.36
58473;BME280;44775;51.564;5.460;2022-08-23T04:12:45;101186.41;;;15.98;93.78
58473;BME280;44775;51.564;5.460;2022-08-23T04:15:11;101188.44;;;15.96;93.96
58473;BME280;44775;51.564;5.460;2022-08-23T04:17:38;101189.50;;;15.95;94.22
58473;BME280;44775;51.564;5.460;2022-08-23T04:20:04;101190.69;;;15.92;94.62
58473;BME280;44775;51.564;5.460;2022-08-23T04:22:30;101195.09;;;15.93;94.88
58473;BME280;44775;51.564;5.460;2022-08-23T04:24:58;101193.84;;;15.96;96.59
58473;BME280;44775;51.564;5.460;2022-08-23T04:27:23;101194.06;;;15.94;97.63
58473;BME280;44775;51.564;5.460;2022-08-23T04:29:48;101185.53;;;15.91;98.30
58473;BME280;44775;51.564;5.460;2022-08-23T04:32:14;101193.34;;;15.86;98.51
58473;BME280;44775;51.564;5.460;2022-08-23T04:34:40;101191.69;;;15.85;98.44
58473;BME280;44775;51.564;5.460;2022-08-23T04:37:08;101191.91;;;15.83;99.07
58473;BME280;44775;51.564;5.460;2022-08-23T04:39:34;101198.06;;;15.77;99.25
58473;BME280;44775;51.564;5.460;2022-08-23T04:42:20;101201.97;;;15.74;98.95
58473;BME280;44775;51.564;5.460;2022-08-23T04:44:47;101195.38;;;15.77;98.97
58473;BME280;44775;51.564;5.460;2022-08-23T04:47:12;101200.53;;;15.78;98.79
58473;BME280;44775;51.564;5.460;2022-08-23T04:49:38;101199.53;;;15.79;98.63
58473;BME280;44775;51.564;5.460;2022-08-23T04:52:03;101201.00;;;15.82;98.49
58473;BME280;44775;51.564;5.460;2022-08-23T04:54:29;101199.34;;;15.81;98.28
58473;BME280;44775;51.564;5.460;2022-08-23T04:56:55;101213.69;;;15.88;98.41
58473;BME280;44775;51.564;5.460;2022-08-23T04:59:21;101215.56;;;15.88;97.86
58473;BME280;44775;51.564;5.460;2022-08-23T05:01:48;101213.75;;;15.95;97.99
58473;BME280;44775;51.564;5.460;2022-08-23T05:04:13;101217.53;;;16.00;98.06
58473;BME280;44775;51.564;5.460;2022-08-23T05:06:39;101218.59;;;16.06;98.28
58473;BME280;44775;51.564;5.460;2022-08-23T05:09:05;101217.00;;;16.12;97.95
58473;BME280;44775;51.564;5.460;2022-08-23T05:11:30;101216.38;;;16.16;97.49
58473;BME280;44775;51.564;5.460;2022-08-23T05:13:56;101218.69;;;16.19;97.43
58473;BME280;44775;51.564;5.460;2022-08-23T05:16:22;101218.56;;;16.27;97.56
58473;BME280;44775;51.564;5.460;2022-08-23T05:18:47;101218.16;;;16.31;97.15
58473;BME280;44775;51.564;5.460;2022-08-23T05:21:15;101216.97;;;16.40;96.74
58473;BME280;44775;51.564;5.460;2022-08-23T05:23:41;101220.97;;;16.44;96.74
58473;BME280;44775;51.564;5.460;2022-08-23T05:26:06;101221.44;;;16.54;96.10
58473;BME280;44775;51.564;5.460;2022-08-23T05:28:33;101212.50;;;16.60;95.98
58473;BME280;44775;51.564;5.460;2022-08-23T05:31:01;101221.06;;;16.64;95.35
58473;BME280;44775;51.564;5.460;2022-08-23T05:33:29;101223.59;;;16.72;95.13
58473;BME280;44775;51.564;5.460;2022-08-23T05:35:54;101226.34;;;16.79;94.74
58473;BME280;44775;51.564;5.460;2022-08-23T05:38:20;101225.34;;;16.86;94.35
58473;BME280;44775;51.564;5.460;2022-08-23T05:40:50;101233.28;;;16.94;93.24
58473;BME280;44775;51.564;5.460;2022-08-23T05:43:17;101234.56;;;16.98;93.87
58473;BME280;44775;51.564;5.460;2022-08-23T05:45:43;101252.06;;;17.16;94.12
58473;BME280;44775;51.564;5.460;2022-08-23T05:48:09;101251.88;;;17.24;92.89
58473;BME280;44775;51.564;5.460;2022-08-23T05:50:35;101260.66;;;17.39;91.86
58473;BME280;44775;51.564;5.460;2022-08-23T05:53:01;101269.19;;;17.43;89.28
58473;BME280;44775;51.564;5.460;2022-08-23T05:55:26;101264.47;;;17.58;88.40
58473;BME280;44775;51.564;5.460;2022-08-23T05:57:52;101270.50;;;17.67;87.23
58473;BME280;44775;51.564;5.460;2022-08-23T06:00:18;101263.25;;;17.81;86.75
58473;BME280;44775;51.564;5.460;2022-08-23T06:02:43;101264.09;;;17.88;86.89
58473;BME280;44775;51.564;5.460;2022-08-23T06:05:09;101268.69;;;17.94;86.89
58473;BME280;44775;51.564;5.460;2022-08-23T06:07:35;101265.78;;;18.02;85.44
58473;BME280;44775;51.564;5.460;2022-08-23T06:10:02;101274.75;;;18.09;85.32
58473;BME280;44775;51.564;5.460;2022-08-23T06:12:29;101260.16;;;18.17;84.51
58473;BME280;44775;51.564;5.460;2022-08-23T06:14:55;101263.69;;;18.24;84.58
58473;BME280;44775;51.564;5.460;2022-08-23T06:17:22;101273.28;;;18.27;83.58
58473;BME280;44775;51.564;5.460;2022-08-23T06:19:48;101274.09;;;18.34;83.09
58473;BME280;44775;51.564;5.460;2022-08-23T06:22:13;101269.94;;;18.38;83.52
58473;BME280;44775;51.564;5.460;2022-08-23T06:24:38;101267.22;;;18.45;83.89
58473;BME280;44775;51.564;5.460;2022-08-23T06:27:04;101278.03;;;18.51;83.88
58473;BME280;44775;51.564;5.460;2022-08-23T06:29:30;101272.84;;;18.50;83.58
58473;BME280;44775;51.564;5.460;2022-08-23T06:31:56;101273.66;;;18.50;83.98
58473;BME280;44775;51.564;5.460;2022-08-23T06:34:26;101268.25;;;18.44;84.50
58473;BME280;44775;51.564;5.460;2022-08-23T06:37:00;101273.25;;;18.40;83.80
58473;BME280;44775;51.564;5.460;2022-08-23T06:39:28;101280.97;;;18.50;84.06
58473;BME280;44775;51.564;5.460;2022-08-23T06:42:04;101276.53;;;18.69;83.37
58473;BME280;44775;51.564;5.460;2022-08-23T06:44:30;101279.38;;;19.07;81.22
58473;BME280;44775;51.564;5.460;2022-08-23T06:46:56;101280.47;;;19.44;79.38
58473;BME280;44775;51.564;5.460;2022-08-23T06:49:23;101286.16;;;19.74;77.88
58473;BME280;44775;51.564;5.460;2022-08-23T06:51:52;101290.19;;;19.90;76.61
58473;BME280;44775;51.564;5.460;2022-08-23T06:54:21;101282.69;;;19.92;75.82
58473;BME280;44775;51.564;5.460;2022-08-23T06:56:47;101281.69;;;19.87;75.20
58473;BME280;44775;51.564;5.460;2022-08-23T06:59:14;101284.72;;;20.47;75.61
58473;BME280;44775;51.564;5.460;2022-08-23T07:01:49;101273.63;;;20.73;73.00
58473;BME280;44775;51.564;5.460;2022-08-23T07:04:19;101280.78;;;21.41;70.18
58473;BME280;44775;51.564;5.460;2022-08-23T07:06:45;101272.88;;;21.93;68.86
58473;BME280;44775;51.564;5.460;2022-08-23T07:09:11;101278.41;;;22.52;66.40
58473;BME280;44775;51.564;5.460;2022-08-23T07:11:37;101284.28;;;23.08;62.76
58473;BME280;44775;51.564;5.460;2022-08-23T07:14:06;101288.16;;;23.52;61.89
58473;BME280;44775;51.564;5.460;2022-08-23T07:16:38;101281.16;;;23.56;60.58
58473;BME280;44775;51.564;5.460;2022-08-23T07:19:05;101290.50;;;24.06;59.37
58473;BME280;44775;51.564;5.460;2022-08-23T07:21:30;101286.28;;;24.32;58.14
58473;BME280;44775;51.564;5.460;2022-08-23T07:23:56;101293.25;;;24.79;55.92
58473;BME280;44775;51.564;5.460;2022-08-23T07:26:22;101297.09;;;24.78;55.35
58473;BME280;44775;51.564;5.460;2022-08-23T07:28:48;101300.94;;;25.20;54.85
58473;BME280;44775;51.564;5.460;2022-08-23T07:31:17;101302.94;;;25.79;53.53
58473;BME280;44775;51.564;5.460;2022-08-23T07:33:44;101303.31;;;25.88;51.94
58473;BME280;44775;51.564;5.460;2022-08-23T07:36:13;101305.78;;;26.22;51.40
58473;BME280;44775;51.564;5.460;2022-08-23T07:38:41;101311.56;;;26.25;50.35
58473;BME280;44775;51.564;5.460;2022-08-23T07:41:07;101304.00;;;26.37;50.57
58473;BME280;44775;51.564;5.460;2022-08-23T07:43:33;101315.50;;;26.72;49.04
58473;BME280;44775;51.564;5.460;2022-08-23T07:45:59;101311.34;;;26.32;49.86
58473;BME280;44775;51.564;5.460;2022-08-23T07:48:25;101314.53;;;26.51;49.81
58473;BME280;44775;51.564;5.460;2022-08-23T07:50:57;101322.44;;;26.15;51.07
58473;BME280;44775;51.564;5.460;2022-08-23T07:53:23;101326.09;;;26.53;49.37
58473;BME280;44775;51.564;5.460;2022-08-23T07:55:50;101319.81;;;26.63;49.56
58473;BME280;44775;51.564;5.460;2022-08-23T07:58:17;101325.09;;;27.27;48.09
58473;BME280;44775;51.564;5.460;2022-08-23T08:00:42;101322.28;;;27.12;48.44
58473;BME280;44775;51.564;5.460;2022-08-23T08:03:08;101319.22;;;26.98;47.98
58473;BME280;44775;51.564;5.460;2022-08-23T08:05:35;101325.16;;;27.37;47.75
58473;BME280;44775;51.564;5.460;2022-08-23T08:08:02;101333.09;;;27.28;47.73
58473;BME280;44775;51.564;5.460;2022-08-23T08:10:29;101330.53;;;27.95;46.25
58473;BME280;44775;51.564;5.460;2022-08-23T08:12:55;101330.25;;;28.37;45.47
58473;BME280;44775;51.564;5.460;2022-08-23T08:15:20;101333.44;;;29.11;43.51
58473;BME280;44775;51.564;5.460;2022-08-23T08:17:48;101335.72;;;29.53;42.86
58473;BME280;44775;51.564;5.460;2022-08-23T08:20:13;101338.84;;;29.31;42.32
58473;BME280;44775;51.564;5.460;2022-08-23T08:22:40;101337.00;;;29.71;41.22
58473;BME280;44775;51.564;5.460;2022-08-23T08:25:07;101344.16;;;29.72;40.64
58473;BME280;44775;51.564;5.460;2022-08-23T08:27:33;101347.34;;;29.89;41.14
58473;BME280;44775;51.564;5.460;2022-08-23T08:29:58;101341.34;;;30.51;40.54
58473;BME280;44775;51.564;5.460;2022-08-23T08:32:24;101342.78;;;30.09;40.73
58473;BME280;44775;51.564;5.460;2022-08-23T08:34:49;101340.31;;;29.13;42.49
58473;BME280;44775;51.564;5.460;2022-08-23T08:37:15;101343.09;;;29.63;41.49
58473;BME280;44775;51.564;5.460;2022-08-23T08:39:40;101342.44;;;29.81;41.76
58473;BME280;44775;51.564;5.460;2022-08-23T08:47:16;101339.00;;;31.16;39.05
58473;BME280;44775;51.564;5.460;2022-08-23T08:49:52;101340.72;;;31.74;38.04
58473;BME280;44775;51.564;5.460;2022-08-23T08:52:27;101341.34;;;31.90;34.90
58473;BME280;44775;51.564;5.460;2022-08-23T08:55:02;101350.06;;;32.30;35.68
58473;BME280;44775;51.564;5.460;2022-08-23T08:57:31;101350.63;;;32.13;35.57
58473;BME280;44775;51.564;5.460;2022-08-23T09:02:32;101355.94;;;32.75;34.05
58473;BME280;44775;51.564;5.460;2022-08-23T09:05:06;101357.72;;;32.98;34.13
58473;BME280;44775;51.564;5.460;2022-08-23T09:13:16;101365.59;;;32.77;35.14
58473;BME280;44775;51.564;5.460;2022-08-23T09:16:06;101364.41;;;32.51;35.79
58473;BME280;44775;51.564;5.460;2022-08-23T09:18:36;101362.19;;;32.34;34.59
58473;BME280;44775;51.564;5.460;2022-08-23T09:21:05;101358.75;;;33.02;34.29
58473;BME280;44775;51.564;5.460;2022-08-23T09:23:37;101361.72;;;33.20;33.90
58473;BME280;44775;51.564;5.460;2022-08-23T09:26:24;101364.81;;;33.68;33.35
58473;BME280;44775;51.564;5.460;2022-08-23T09:28:55;101367.06;;;33.80;32.74
58473;BME280;44775;51.564;5.460;2022-08-23T09:31:42;101369.06;;;34.02;33.47
58473;BME280;44775;51.564;5.460;2022-08-23T09:34:09;101369.56;;;34.26;32.51
58473;BME280;44775;51.564;5.460;2022-08-23T09:36:39;101365.66;;;34.05;31.45
58473;BME280;44775;51.564;5.460;2022-08-23T09:39:07;101372.91;;;33.14;33.25
58473;BME280;44775;51.564;5.460;2022-08-23T09:41:36;101369.72;;;33.35;33.18
58473;BME280;44775;51.564;5.460;2022-08-23T09:44:06;101358.63;;;33.35;32.92
58473;BME280;44775;51.564;5.460;2022-08-23T09:46:34;101364.28;;;33.30;33.06
58473;BME280;44775;51.564;5.460;2022-08-23T09:49:24;101368.97;;;33.93;33.54
58473;BME280;44775;51.564;5.460;2022-08-23T09:51:51;101367.06;;;34.16;32.02
58473;BME280;44775;51.564;5.460;2022-08-23T09:54:22;101368.72;;;34.48;31.66
58473;BME280;44775;51.564;5.460;2022-08-23T09:56:53;101367.47;;;34.54;30.79
58473;BME280;44775;51.564;5.460;2022-08-23T10:01:50;101358.94;;;34.82;30.70
58473;BME280;44775;51.564;5.460;2022-08-23T10:07:25;101352.91;;;34.80;31.32
58473;BME280;44775;51.564;5.460;2022-08-23T10:09:52;101358.50;;;34.89;29.00
58473;BME280;44775;51.564;5.460;2022-08-23T10:12:18;101353.09;;;34.92;29.70
58473;BME280;44775;51.564;5.460;2022-08-23T10:14:44;101354.81;;;35.02;28.97
58473;BME280;44775;51.564;5.460;2022-08-23T10:17:33;101357.97;;;34.78;30.03
58473;BME280;44775;51.564;5.460;2022-08-23T10:22:54;101345.56;;;34.84;30.14
58473;BME280;44775;51.564;5.460;2022-08-23T10:25:34;101347.72;;;34.56;29.60
58473;BME280;44775;51.564;5.460;2022-08-23T10:31:01;101343.69;;;35.68;29.05
58473;BME280;44775;51.564;5.460;2022-08-23T10:33:57;101342.00;;;36.28;28.01
58473;BME280;44775;51.564;5.460;2022-08-23T10:39:29;101345.16;;;35.83;28.21
58473;BME280;44775;51.564;5.460;2022-08-23T10:42:10;101342.59;;;36.59;27.75
58473;BME280;44775;51.564;5.460;2022-08-23T10:44:47;101344.13;;;36.31;26.75
58473;BME280;44775;51.564;5.460;2022-08-23T10:47:37;101343.44;;;36.42;27.03
58473;BME280;44775;51.564;5.460;2022-08-23T10:50:09;101341.69;;;35.51;27.26
58473;BME280;44775;51.564;5.460;2022-08-23T10:52:42;101337.47;;;34.57;28.62
58473;BME280;44775;51.564;5.460;2022-08-23T10:55:17;101338.75;;;34.90;28.52
58473;BME280;44775;51.564;5.460;2022-08-23T10:58:00;101329.03;;;35.19;27.35
58473;BME280;44775;51.564;5.460;2022-08-23T11:00:28;101334.84;;;35.66;27.08
58473;BME280;44775;51.564;5.460;2022-08-23T11:03:18;101321.53;;;35.37;27.55
58473;BME280;44775;51.564;5.460;2022-08-23T11:06:24;101321.44;;;35.68;27.91
58473;BME280;44775;51.564;5.460;2022-08-23T11:11:45;101329.03;;;36.49;26.32
58473;BME280;44775;51.564;5.460;2022-08-23T11:17:09;101324.63;;;37.46;25.75
58473;BME280;44775;51.564;5.460;2022-08-23T11:19:56;101326.69;;;37.28;26.21
58473;BME280;44775;51.564;5.460;2022-08-23T11:22:25;101328.56;;;36.38;26.16
58473;BME280;44775;51.564;5.460;2022-08-23T11:24:58;101323.06;;;35.60;26.88
58473;BME280;44775;51.564;5.460;2022-08-23T11:27:29;101327.13;;;36.24;26.45
58473;BME280;44775;51.564;5.460;2022-08-23T11:29:55;101333.19;;;36.00;25.52
58473;BME280;44775;51.564;5.460;2022-08-23T11:32:31;101329.31;;;35.00;26.61
58473;BME280;44775;51.564;5.460;2022-08-23T11:37:58;101335.00;;;34.55;28.02
58473;BME280;44775;51.564;5.460;2022-08-23T11:40:39;101336.75;;;34.51;28.32
58473;BME280;44775;51.564;5.460;2022-08-23T11:43:10;101330.59;;;34.54;28.59
58473;BME280;44775;51.564;5.460;2022-08-23T11:48:46;101329.38;;;34.77;28.15
58473;BME280;44775;51.564;5.460;2022-08-23T12:03:08;101318.50;;;33.82;29.13
58473;BME280;44775;51.564;5.460;2022-08-23T12:06:03;101324.91;;;34.37;28.53
58473;BME280;44775;51.564;5.460;2022-08-23T12:11:01;101324.19;;;33.64;29.42
58473;BME280;44775;51.564;5.460;2022-08-23T12:13:45;101321.44;;;33.64;29.79
58473;BME280;44775;51.564;5.460;2022-08-23T12:21:31;101327.53;;;34.33;28.74
58473;BME280;44775;51.564;5.460;2022-08-23T12:24:00;101313.09;;;32.86;30.02
58473;BME280;44775;51.564;5.460;2022-08-23T12:26:48;101314.03;;;32.95;30.63
58473;BME280;44775;51.564;5.460;2022-08-23T12:32:08;101324.31;;;34.17;28.91
58473;BME280;44775;51.564;5.460;2022-08-23T12:34:43;101312.94;;;34.27;28.37
58473;BME280;44775;51.564;5.460;2022-08-23T12:40:07;101323.69;;;36.18;26.34
58473;BME280;44775;51.564;5.460;2022-08-23T12:42:37;101319.94;;;35.70;26.07
58473;BME280;44775;51.564;5.460;2022-08-23T12:45:13;101323.00;;;36.30;26.16
58473;BME280;44775;51.564;5.460;2022-08-23T12:47:41;101323.75;;;36.95;24.97
58473;BME280;44775;51.564;5.460;2022-08-23T12:52:37;101320.75;;;37.08;24.73
58473;BME280;44775;51.564;5.460;2022-08-23T12:55:13;101329.38;;;36.86;24.87
58473;BME280;44775;51.564;5.460;2022-08-23T12:57:41;101320.13;;;35.83;25.65
58473;BME280;44775;51.564;5.460;2022-08-23T13:02:43;101320.41;;;35.46;26.73
58473;BME280;44775;51.564;5.460;2022-08-23T13:05:20;101317.63;;;35.29;27.11
58473;BME280;44775;51.564;5.460;2022-08-23T13:07:48;101316.38;;;35.61;26.92
58473;BME280;44775;51.564;5.460;2022-08-23T13:10:15;101318.94;;;36.74;25.95
58473;BME280;44775;51.564;5.460;2022-08-23T13:12:41;101317.75;;;36.37;25.69
58473;BME280;44775;51.564;5.460;2022-08-23T13:15:09;101316.47;;;37.11;25.33
58473;BME280;44775;51.564;5.460;2022-08-23T13:17:36;101316.75;;;36.50;25.76
58473;BME280;44775;51.564;5.460;2022-08-23T13:22:36;101313.25;;;37.72;23.98
58473;BME280;44775;51.564;5.460;2022-08-23T13:25:07;101320.75;;;38.13;23.95
58473;BME280;44775;51.564;5.460;2022-08-23T13:27:36;101319.22;;;37.83;23.32
58473;BME280;44775;51.564;5.460;2022-08-23T13:32:45;101316.19;;;37.04;24.58
58473;BME280;44775;51.564;5.460;2022-08-23T13:38:20;101315.97;;;38.01;24.16
58473;BME280;44775;51.564;5.460;2022-08-23T13:41:28;101317.19;;;38.25;23.58
58473;BME280;44775;51.564;5.460;2022-08-23T13:43:55;101304.91;;;38.05;23.73
58473;BME280;44775;51.564;5.460;2022-08-23T13:46:24;101304.22;;;38.08;23.23
58473;BME280;44775;51.564;5.460;2022-08-23T13:49:01;101300.31;;;37.88;24.14
58473;BME280;44775;51.564;5.460;2022-08-23T13:51:33;101304.78;;;36.41;25.27
58473;BME280;44775;51.564;5.460;2022-08-23T13:54:04;101305.59;;;37.18;24.51
58473;BME280;44775;51.564;5.460;2022-08-23T13:56:34;101309.38;;;38.18;23.40
58473;BME280;44775;51.564;5.460;2022-08-23T13:59:24;101305.09;;;38.21;23.28
58473;BME280;44775;51.564;5.460;2022-08-23T14:01:48;101306.44;;;37.81;23.40
58473;BME280;44775;51.564;5.460;2022-08-23T14:04:14;101309.22;;;37.81;24.32
58473;BME280;44775;51.564;5.460;2022-08-23T14:06:40;101301.50;;;37.45;24.18
58473;BME280;44775;51.564;5.460;2022-08-23T14:09:05;101301.38;;;36.82;25.37
58473;BME280;44775;51.564;5.460;2022-08-23T14:11:31;101296.88;;;36.99;24.70
58473;BME280;44775;51.564;5.460;2022-08-23T14:13:58;101306.44;;;37.81;23.73
58473;BME280;44775;51.564;5.460;2022-08-23T14:16:27;101304.63;;;38.31;23.67
58473;BME280;44775;51.564;5.460;2022-08-23T14:18:54;101297.56;;;37.67;24.13
58473;BME280;44775;51.564;5.460;2022-08-23T14:21:20;101297.72;;;36.05;26.06
58473;BME280;44775;51.564;5.460;2022-08-23T14:23:45;101305.38;;;36.00;26.72
58473;BME280;44775;51.564;5.460;2022-08-23T14:26:15;101302.97;;;35.55;27.29
58473;BME280;44775;51.564;5.460;2022-08-23T14:28:42;101297.03;;;34.11;28.95
58473;BME280;44775;51.564;5.460;2022-08-23T14:31:09;101298.69;;;33.98;29.20